Terminal Aerodrome Forecast
Issued by NWS

Home | Current Version | Previous Version | Text Only | Print | Product List | Glossary On
Versions: 1 2 3 4 5 6 7 8 9 10 11 12 13 14 15 16 17 18 19 20 21 22 23 24 25 26 27 28 29 30 31 32 33
000
FTUS43 KPAH 061407 AAA
TAFOWB
TAF AMD
KOWB 061407Z 0614/0712 22008KT 5SM HZ FEW014
      TEMPO 0615/0618 BKN014
     FM061800 22008KT P6SM SCT035
     FM070100 20005KT P6SM BKN250=

USA.gov is the U.S. government's official web portal to all federal, state and local government web resources and services.